Terminal Aerodrome Forecast
Issued by NWS

Home | Current Version | Previous Version | Text Only | Print | Product List | Glossary On
Versions: 1 2 3 4 5 6 7 8 9 10 11 12 13 14 15
000
FTAK31 PAFA 200528
TAFAGA
TAF
PAGA 200528Z 2006/2106 12010KT P6SM SCT025 BKN035 OVC050
     FM200900 12015KT 2SM -SN BR SCT015 BKN025 OVC035
     FM201200 18018KT 4SM -SN BR SCT015 BKN025 BKN035
     FM201500 21015KT P6SM VCSH SCT025 BKN035 BKN050
     FM201800 21015G25KT P6SM VCSH SCT025 BKN035 BKN050=

USA.gov is the U.S. government's official web portal to all federal, state and local government web resources and services.